0 Max
15 km/h
0 Mini

LFMY 252330Z AUTO 20004KT 160V240 9999 // NSC 22/14 Q1012

TAF LFMY 251951Z 2519/2615 CNL